CheckWX is a tool to help pilots better visualize weather data.  It is not intended as a substitute for an official pre-flight weather briefing.

01:13:38 UTC

KCQF METAR
H L Sonny Callahan Airport
Fairhope, Alabama, USA
Current

19 mins ago

KCQF 200055Z AUTO 04007KT 10SM 24/21 A3007 RMK AO2
Observed
Jul-20 @ 00:55 UTC
Wind
  • 040° at 7 KTS
Visibility
10 SM
Temperature
24°C / 75°F
Dewpoint
21°C / 70°F
Humidity
83%
Altimeter
30.07" Hg
Pressure
1018.32 hPa
Previous

39 mins ago

KCQF 200035Z AUTO 03011G17KT 10SM 25/21 A3009 RMK AO2
Observed
Jul-20 @ 00:35 UTC
Wind
  • 030° at 11 KTS
  • Gusting to 17 KTS
Visibility
10 SM
Temperature
25°C / 77°F
Dewpoint
21°C / 70°F
Humidity
79%
Altimeter
30.09" Hg
Pressure
1018.92 hPa
Previous

59 mins ago

KCQF 200015Z AUTO 03007KT 10SM 28/25 A3008 RMK AO2
Observed
Jul-20 @ 00:15 UTC
Wind
  • 030° at 7 KTS
Visibility
10 SM
Temperature
28°C / 82°F
Dewpoint
25°C / 77°F
Heat Index
32°C / 90°F
Humidity
84%
Altimeter
30.08" Hg
Pressure
1018.62 hPa